createdAt,value
2022-09-10T00:01:51.163Z,13.80
2022-09-10T00:04:20.582Z,13.80
2022-09-10T00:06:47.173Z,13.80
2022-09-10T00:09:14.126Z,13.80
2022-09-10T00:11:41.794Z,13.70
2022-09-10T00:14:11.568Z,13.70
2022-09-10T00:16:38.168Z,13.70
2022-09-10T00:19:06.716Z,13.70
2022-09-10T00:21:36.978Z,13.70
2022-09-10T00:24:14.629Z,13.70
2022-09-10T00:26:47.207Z,13.70
2022-09-10T00:29:21.138Z,13.70
2022-09-10T00:31:59.208Z,13.70
2022-09-10T00:34:28.286Z,13.70
2022-09-10T00:37:01.559Z,13.70
2022-09-10T00:39:30.800Z,13.70
2022-09-10T00:42:00.585Z,13.70
2022-09-10T00:44:39.582Z,13.70
2022-09-10T00:47:08.013Z,13.70
2022-09-10T00:49:45.492Z,13.60
2022-09-10T00:52:13.914Z,13.60
2022-09-10T00:54:42.151Z,13.60
2022-09-10T00:57:17.789Z,13.60
2022-09-10T00:59:50.077Z,13.60
2022-09-10T01:02:18.552Z,13.60
2022-09-10T01:04:52.774Z,13.50
2022-09-10T01:07:21.382Z,13.40
2022-09-10T01:09:51.782Z,13.40
2022-09-10T01:12:34.313Z,13.40
2022-09-10T01:15:07.564Z,13.40
2022-09-10T01:17:45.429Z,13.30
2022-09-10T01:20:32.140Z,13.30
2022-09-10T01:23:05.524Z,13.30
2022-09-10T01:28:48.241Z,13.30
2022-09-10T01:31:20.640Z,13.20
2022-09-10T01:33:52.665Z,13.20
2022-09-10T01:36:24.638Z,13.20
2022-09-10T01:38:54.036Z,13.20
2022-09-10T01:41:21.237Z,13.10
2022-09-10T01:43:52.070Z,13.10
2022-09-10T01:46:33.516Z,13.10
2022-09-10T01:49:19.803Z,13.20
2022-09-10T01:51:46.670Z,13.20
2022-09-10T01:54:13.245Z,13.20
2022-09-10T01:56:54.362Z,13.20
2022-09-10T01:59:41.058Z,13.20
2022-09-10T02:02:17.335Z,13.20
2022-09-10T02:04:54.832Z,13.20
2022-09-10T02:07:22.819Z,13.20
2022-09-10T02:09:50.722Z,13.10
2022-09-10T02:12:21.517Z,13.10
2022-09-10T02:14:54.122Z,13.10
2022-09-10T02:17:22.996Z,13.10
2022-09-10T02:19:53.833Z,13.10
2022-09-10T02:22:22.026Z,13.10
2022-09-10T02:27:36.903Z,13.10
2022-09-10T02:30:04.559Z,13.10
2022-09-10T02:32:31.111Z,13.10
2022-09-10T02:35:00.840Z,13.10
2022-09-10T02:37:32.776Z,13.10
2022-09-10T02:40:06.794Z,13.10
2022-09-10T02:42:34.054Z,13.10
2022-09-10T02:45:00.725Z,13.10
2022-09-10T02:47:27.433Z,13.00
2022-09-10T02:49:54.216Z,13.00
2022-09-10T02:52:24.031Z,13.00
2022-09-10T02:54:52.285Z,13.00
2022-09-10T02:57:18.906Z,13.00
2022-09-10T02:59:52.882Z,12.90
2022-09-10T03:02:20.574Z,12.90
2022-09-10T03:04:51.393Z,12.90
2022-09-10T03:07:21.645Z,12.90
2022-09-10T03:09:48.277Z,12.90
2022-09-10T03:12:18.660Z,13.00
2022-09-10T03:14:48.968Z,12.90
2022-09-10T03:17:18.949Z,12.90
2022-09-10T03:19:45.635Z,12.90
2022-09-10T03:22:12.207Z,12.90
2022-09-10T03:24:42.005Z,12.90
2022-09-10T03:27:19.437Z,12.90
2022-09-10T03:29:46.043Z,12.80
2022-09-10T03:32:12.698Z,12.70
2022-09-10T03:37:21.064Z,12.60
2022-09-10T03:39:47.980Z,12.50
2022-09-10T03:42:15.642Z,12.50
2022-09-10T03:44:42.561Z,12.50
2022-09-10T03:47:17.543Z,12.40
2022-09-10T03:49:44.067Z,12.30
2022-09-10T03:52:13.724Z,12.30
2022-09-10T03:54:42.627Z,12.30
2022-09-10T03:57:11.488Z,12.20
2022-09-10T03:59:41.221Z,12.20
2022-09-10T04:02:09.334Z,12.20
2022-09-10T04:04:39.049Z,12.30
2022-09-10T04:07:05.627Z,12.30
2022-09-10T04:09:32.690Z,12.20
2022-09-10T04:14:45.501Z,12.20
2022-09-10T04:17:12.682Z,12.30
2022-09-10T04:19:40.154Z,12.20
2022-09-10T04:22:12.906Z,12.20
2022-09-10T04:24:47.424Z,12.20
2022-09-10T04:27:17.312Z,12.20
2022-09-10T04:29:44.073Z,12.20
2022-09-10T04:32:10.622Z,12.10
2022-09-10T04:34:42.507Z,12.10
2022-09-10T04:37:25.032Z,12.10
2022-09-10T04:39:51.648Z,12.10
2022-09-10T04:42:27.450Z,12.10
2022-09-10T04:44:56.245Z,12.10
2022-09-10T04:47:23.300Z,12.10
2022-09-10T04:49:52.306Z,12.10
2022-09-10T04:52:20.169Z,12.10
2022-09-10T04:55:41.676Z,12.10
2022-09-10T04:58:08.333Z,12.00
2022-09-10T05:00:34.953Z,12.00
2022-09-10T05:03:01.527Z,12.00
2022-09-10T05:05:28.481Z,12.00
2022-09-10T05:07:55.023Z,12.00
2022-09-10T05:10:24.363Z,12.00
2022-09-10T05:12:50.972Z,12.00
2022-09-10T05:15:17.512Z,12.00
2022-09-10T05:17:44.112Z,12.10
2022-09-10T05:20:10.707Z,12.10
2022-09-10T05:22:40.645Z,12.20
2022-09-10T05:25:07.729Z,12.20
2022-09-10T05:27:34.272Z,12.20
2022-09-10T05:30:02.053Z,12.20
2022-09-10T05:32:28.822Z,12.30
2022-09-10T05:34:55.492Z,12.30
2022-09-10T05:37:22.205Z,12.30
2022-09-10T05:39:48.787Z,12.30
2022-09-10T05:42:18.236Z,12.30
2022-09-10T05:44:45.185Z,12.40
2022-09-10T05:47:11.716Z,12.50
2022-09-10T05:49:38.453Z,12.50
2022-09-10T05:52:05.063Z,12.60
2022-09-10T05:54:31.608Z,12.60
2022-09-10T05:56:58.745Z,12.60
2022-09-10T05:59:25.302Z,12.70
2022-09-10T06:01:52.262Z,12.80
2022-09-10T06:04:21.937Z,12.80
2022-09-10T06:06:48.433Z,12.80
2022-09-10T06:09:15.021Z,12.90
2022-09-10T06:11:42.121Z,13.00
2022-09-10T06:14:09.019Z,13.10
2022-09-10T06:16:35.614Z,13.10
2022-09-10T06:19:02.984Z,13.20
2022-09-10T06:21:29.817Z,13.30
2022-09-10T06:23:56.445Z,13.40
2022-09-10T06:26:23.422Z,13.50
2022-09-10T06:28:50.452Z,13.50
2022-09-10T06:31:17.986Z,13.60
2022-09-10T06:33:44.575Z,13.70
2022-09-10T06:36:14.169Z,13.80
2022-09-10T06:38:41.226Z,13.90
2022-09-10T06:41:12.028Z,14.00
2022-09-10T06:43:41.108Z,14.10
2022-09-10T06:46:24.793Z,14.20
2022-09-10T06:49:00.765Z,14.30
2022-09-10T06:51:27.366Z,14.50
2022-09-10T06:53:53.925Z,14.60
2022-09-10T06:56:21.123Z,14.70
2022-09-10T06:58:47.897Z,14.80
2022-09-10T07:01:18.949Z,15.00
2022-09-10T07:03:46.096Z,15.40
2022-09-10T07:06:14.108Z,15.70
2022-09-10T07:08:41.094Z,16.10
2022-09-10T07:11:11.245Z,16.50
2022-09-10T07:13:37.752Z,16.80
2022-09-10T07:16:04.464Z,17.20
2022-09-10T07:18:31.175Z,17.50
2022-09-10T07:21:08.032Z,17.80
2022-09-10T07:23:34.575Z,18.10
2022-09-10T07:26:05.467Z,18.40
2022-09-10T07:28:32.198Z,18.60
2022-09-10T07:30:59.071Z,18.80
2022-09-10T07:33:25.819Z,19.00
2022-09-10T07:35:52.449Z,19.10
2022-09-10T07:38:20.595Z,19.20
2022-09-10T07:40:48.263Z,19.40
2022-09-10T07:43:15.432Z,19.60
2022-09-10T07:45:42.222Z,19.70
2022-09-10T07:48:09.925Z,19.90
2022-09-10T07:50:36.431Z,19.90
2022-09-10T07:53:03.066Z,20.10
2022-09-10T07:55:31.463Z,20.30
2022-09-10T07:58:00.077Z,20.50
2022-09-10T08:00:26.843Z,20.60
2022-09-10T08:02:53.360Z,20.80
2022-09-10T08:05:19.889Z,20.90
2022-09-10T08:07:46.586Z,21.00
2022-09-10T08:10:13.399Z,21.20
2022-09-10T08:12:40.611Z,21.40
2022-09-10T08:15:08.441Z,21.50
2022-09-10T08:17:36.715Z,21.70
2022-09-10T08:20:04.636Z,21.90
2022-09-10T08:22:31.673Z,22.00
2022-09-10T08:24:58.995Z,22.10
2022-09-10T08:27:25.494Z,22.20
2022-09-10T08:29:53.316Z,22.40
2022-09-10T08:32:19.969Z,22.60
2022-09-10T08:34:47.616Z,22.70
2022-09-10T08:37:16.155Z,22.90
2022-09-10T08:39:43.223Z,22.90
2022-09-10T08:42:19.060Z,23.00
2022-09-10T08:45:02.605Z,22.90
2022-09-10T08:47:42.938Z,22.80
2022-09-10T08:50:17.171Z,22.90
2022-09-10T08:52:46.779Z,23.10
2022-09-10T08:55:13.433Z,23.20
2022-09-10T08:57:41.812Z,23.40
2022-09-10T09:00:12.039Z,23.50
2022-09-10T09:02:49.273Z,23.60
2022-09-10T09:05:17.940Z,23.90
2022-09-10T09:07:44.959Z,24.20
2022-09-10T09:10:18.231Z,24.20
2022-09-10T09:12:51.113Z,24.30
2022-09-10T09:15:25.537Z,24.30
2022-09-10T09:18:10.987Z,24.10
2022-09-10T09:20:45.414Z,23.90
2022-09-10T09:23:14.649Z,24.00
2022-09-10T09:25:53.107Z,24.00
2022-09-10T09:28:24.707Z,24.10
2022-09-10T09:30:53.495Z,23.90
2022-09-10T09:33:22.658Z,23.90
2022-09-10T09:35:55.202Z,23.80
2022-09-10T09:38:30.989Z,23.60
2022-09-10T09:40:59.056Z,23.20
2022-09-10T09:43:31.449Z,22.70
2022-09-10T09:45:58.527Z,22.20
2022-09-10T09:48:25.222Z,22.00
2022-09-10T09:50:53.877Z,21.90
2022-09-10T09:53:22.549Z,21.70
2022-09-10T09:55:53.729Z,21.50
2022-09-10T09:58:33.493Z,21.40
2022-09-10T10:01:03.088Z,21.60
2022-09-10T10:03:38.306Z,21.70
2022-09-10T10:06:08.788Z,21.80
2022-09-10T10:08:54.338Z,21.80
2022-09-10T10:11:21.675Z,21.70
2022-09-10T10:13:50.248Z,21.60
2022-09-10T10:16:35.649Z,21.30
2022-09-10T10:19:02.624Z,21.20
2022-09-10T10:21:30.080Z,21.30
2022-09-10T10:23:57.072Z,21.50
2022-09-10T10:26:34.683Z,21.60
2022-09-10T10:29:17.094Z,21.50
2022-09-10T10:31:44.800Z,21.50
2022-09-10T10:34:17.453Z,21.30
2022-09-10T10:37:04.240Z,21.20
2022-09-10T10:39:37.000Z,21.00
2022-09-10T10:42:15.664Z,21.00
2022-09-10T10:44:42.211Z,20.90
2022-09-10T10:47:20.929Z,20.90
2022-09-10T10:49:58.311Z,20.90
2022-09-10T10:52:46.683Z,20.80
2022-09-10T10:55:19.634Z,21.00
2022-09-10T10:58:01.999Z,21.50
2022-09-10T11:00:30.494Z,22.00
2022-09-10T11:03:20.977Z,22.60
2022-09-10T11:06:03.335Z,23.10
2022-09-10T11:08:42.856Z,23.50
2022-09-10T11:11:13.320Z,23.20
2022-09-10T11:13:44.467Z,22.80
2022-09-10T11:16:20.127Z,22.30
2022-09-10T11:18:52.527Z,22.20
2022-09-10T11:21:40.778Z,22.60
2022-09-10T11:24:07.319Z,23.00
2022-09-10T11:26:37.771Z,23.60
2022-09-10T11:29:23.049Z,23.90
2022-09-10T11:31:52.343Z,24.10
2022-09-10T11:34:24.821Z,24.30
2022-09-10T11:36:54.752Z,24.40
2022-09-10T11:39:31.736Z,24.40
2022-09-10T11:41:59.001Z,24.20
2022-09-10T11:44:36.543Z,23.80
2022-09-10T11:47:21.787Z,23.50
2022-09-10T11:49:54.577Z,23.30
2022-09-10T11:52:22.008Z,23.40
2022-09-10T11:54:48.623Z,23.50
2022-09-10T11:57:18.460Z,23.80
2022-09-10T11:59:48.007Z,24.20
2022-09-10T12:02:24.110Z,24.60
2022-09-10T12:05:05.969Z,24.80
2022-09-10T12:07:48.955Z,24.80
2022-09-10T12:10:18.523Z,24.60
2022-09-10T12:12:46.263Z,24.70
2022-09-10T12:15:17.841Z,24.20
2022-09-10T12:17:46.217Z,24.10
2022-09-10T12:20:26.982Z,24.30
2022-09-10T12:22:55.063Z,23.70
2022-09-10T12:25:21.525Z,23.70
2022-09-10T12:27:52.664Z,24.00
2022-09-10T14:25:31.201Z,21.90
2022-09-10T14:28:16.293Z,21.80
2022-09-10T14:30:44.893Z,21.80
2022-09-10T14:33:20.803Z,21.80
2022-09-10T14:35:51.445Z,21.80
2022-09-10T14:38:30.621Z,21.90
2022-09-10T14:41:04.389Z,22.00
2022-09-10T14:43:37.922Z,22.10
2022-09-10T14:46:09.968Z,22.20
2022-09-10T14:48:58.794Z,22.40
2022-09-10T14:51:25.781Z,22.60
2022-09-10T14:53:54.707Z,22.80
2022-09-10T14:56:39.679Z,23.00
2022-09-10T14:59:14.097Z,23.10
2022-09-10T15:01:42.462Z,23.20
2022-09-10T15:04:21.558Z,23.30
2022-09-10T15:06:48.283Z,23.20
2022-09-10T15:09:15.416Z,23.20
2022-09-10T15:11:53.921Z,23.20
2022-09-10T15:14:28.760Z,23.10
2022-09-10T15:16:55.776Z,23.00
2022-09-10T15:19:22.740Z,22.80
2022-09-10T15:21:50.018Z,22.60
2022-09-10T15:24:19.531Z,22.50
2022-09-10T15:26:46.643Z,22.10
2022-09-10T15:29:14.336Z,22.00
2022-09-10T15:31:42.244Z,21.80
2022-09-10T15:34:09.979Z,21.60
2022-09-10T15:36:38.788Z,21.40
2022-09-10T15:39:06.980Z,21.30
2022-09-10T15:41:34.444Z,21.20
2022-09-10T15:44:03.083Z,21.10
2022-09-10T15:46:29.775Z,21.00
2022-09-10T15:48:59.422Z,20.90
2022-09-10T15:51:26.981Z,20.90
2022-09-10T15:53:55.156Z,20.80
2022-09-10T15:56:24.776Z,20.70
2022-09-10T15:58:57.241Z,20.60
2022-09-10T16:01:27.948Z,20.50
2022-09-10T16:03:57.634Z,20.50
2022-09-10T16:06:27.636Z,20.40
2022-09-10T16:08:57.854Z,20.40
2022-09-10T16:11:25.384Z,20.40
2022-09-10T16:13:52.357Z,20.40
2022-09-10T16:16:22.904Z,20.40
2022-09-10T16:18:52.823Z,20.40
2022-09-10T16:21:26.115Z,20.40
2022-09-10T16:23:54.780Z,20.30
2022-09-10T16:26:24.100Z,20.30
2022-09-10T16:28:51.703Z,20.20
2022-09-10T16:31:22.754Z,20.10
2022-09-10T16:33:54.505Z,20.10
2022-09-10T16:36:22.221Z,20.10
2022-09-10T16:38:53.372Z,20.10
2022-09-10T16:41:20.692Z,20.10
2022-09-10T16:43:47.263Z,20.00
2022-09-10T16:46:13.941Z,20.00
2022-09-10T16:48:42.878Z,19.90
2022-09-10T16:51:15.721Z,19.90
2022-09-10T16:53:44.329Z,19.90
2022-09-10T16:56:16.375Z,19.80
2022-09-10T16:58:47.701Z,19.80
2022-09-10T17:01:25.902Z,19.80
2022-09-10T17:06:41.691Z,19.60
2022-09-10T17:09:10.259Z,19.60
2022-09-10T17:11:37.799Z,19.50
2022-09-10T17:14:08.269Z,19.50
2022-09-10T17:16:40.401Z,19.40
2022-09-10T17:19:15.471Z,19.30
2022-09-10T17:21:46.093Z,19.30
2022-09-10T17:24:13.773Z,19.20
2022-09-10T17:26:42.871Z,19.20
2022-09-10T17:29:14.862Z,19.00
2022-09-10T17:31:42.459Z,18.90
2022-09-10T17:34:23.969Z,18.80
2022-09-10T17:37:05.061Z,18.80
2022-09-10T17:43:13.740Z,18.60
2022-09-10T18:03:32.939Z,18.30
2022-09-10T18:14:11.387Z,18.20
2022-09-10T18:20:47.581Z,18.00
2022-09-10T18:23:16.854Z,18.10
2022-09-10T18:25:47.858Z,18.10
2022-09-10T18:28:16.555Z,18.10
2022-09-10T18:31:23.390Z,18.00
2022-09-10T18:41:02.545Z,17.80
2022-09-10T18:50:03.406Z,17.60
2022-09-10T19:11:36.393Z,17.10
2022-09-10T19:17:53.356Z,17.00
2022-09-10T19:24:06.672Z,17.00
2022-09-10T19:26:40.363Z,17.00
2022-09-10T19:29:44.269Z,16.90
2022-09-10T19:32:24.901Z,16.90
2022-09-10T19:34:55.681Z,16.90
2022-09-10T19:37:23.146Z,16.90
2022-09-10T19:39:54.423Z,16.90
2022-09-10T19:42:30.323Z,16.90
2022-09-10T19:45:16.132Z,16.90
2022-09-10T19:50:41.016Z,16.90
2022-09-10T19:53:16.498Z,16.90
2022-09-10T19:55:43.321Z,16.80
2022-09-10T19:58:10.406Z,16.80
2022-09-10T20:00:46.907Z,16.70
2022-09-10T20:03:14.608Z,16.70
2022-09-10T20:05:42.712Z,16.60
2022-09-10T20:08:09.834Z,16.60
2022-09-10T20:10:38.098Z,16.50
2022-09-10T20:13:04.816Z,16.50
2022-09-10T20:15:32.065Z,16.40
2022-09-10T20:17:58.970Z,16.30
2022-09-10T20:20:25.633Z,16.30
2022-09-10T20:22:52.360Z,16.30
2022-09-10T20:25:37.521Z,16.20
2022-09-10T20:28:05.365Z,16.20
2022-09-10T20:30:32.168Z,16.20
2022-09-10T20:32:59.105Z,16.10
2022-09-10T20:35:26.015Z,16.10
2022-09-10T20:37:59.890Z,16.10
2022-09-10T20:40:26.620Z,16.10
2022-09-10T20:42:53.431Z,16.00
2022-09-10T20:45:20.488Z,16.10
2022-09-10T20:47:47.426Z,16.00
2022-09-10T20:51:07.971Z,16.00
2022-09-10T20:53:41.906Z,16.00
2022-09-10T20:56:19.348Z,15.90
2022-09-10T20:58:47.405Z,15.90
2022-09-10T21:01:18.978Z,15.80
2022-09-10T21:03:50.002Z,15.80
2022-09-10T21:06:19.508Z,15.70
2022-09-10T21:08:56.186Z,15.70
2022-09-10T21:11:24.762Z,15.60
2022-09-10T21:13:56.867Z,15.60
2022-09-10T21:16:31.936Z,15.60
2022-09-10T21:19:08.453Z,15.50
2022-09-10T21:21:36.803Z,15.50
2022-09-10T21:24:12.015Z,15.40
2022-09-10T21:26:43.444Z,15.30
2022-09-10T21:29:15.690Z,15.30
2022-09-10T21:31:42.850Z,15.40
2022-09-10T21:36:56.960Z,15.30
2022-09-10T21:39:23.730Z,15.30
2022-09-10T21:41:51.347Z,15.20
2022-09-10T21:44:27.133Z,15.20
2022-09-10T21:46:54.132Z,15.10
2022-09-10T21:49:22.247Z,15.00
2022-09-10T21:51:49.106Z,14.90
2022-09-10T21:54:25.158Z,14.90
2022-09-10T21:57:00.167Z,14.90
2022-09-10T21:59:28.363Z,14.90
2022-09-10T22:01:55.061Z,14.80
2022-09-10T22:04:32.401Z,14.80
2022-09-10T22:06:59.159Z,14.90
2022-09-10T22:39:16.621Z,14.50
2022-09-10T22:49:01.417Z,14.20
2022-09-10T22:51:46.212Z,14.20
2022-09-10T22:54:23.439Z,14.10
2022-09-10T22:57:00.700Z,14.10
2022-09-10T23:00:14.093Z,14.10
2022-09-10T23:09:33.386Z,14.00
2022-09-10T23:12:07.909Z,14.00
2022-09-10T23:17:55.009Z,14.00
2022-09-10T23:28:35.180Z,14.00
2022-09-10T23:38:19.213Z,14.00
2022-09-10T23:55:23.477Z,13.80
2022-09-10T23:57:56.237Z,13.70
